sensor_id;sensor_type;location;lat;lon;timestamp;P1;durP1;ratioP1;P2;durP2;ratioP2
16352;SDS011;8286;51.274;9.542;2023-12-28T00:01:40;5.57;;;1.90;;
16352;SDS011;8286;51.274;9.542;2023-12-28T00:04:06;4.03;;;2.10;;
16352;SDS011;8286;51.274;9.542;2023-12-28T00:06:33;1.97;;;1.87;;
16352;SDS011;8286;51.274;9.542;2023-12-28T00:08:59;6.13;;;1.80;;
16352;SDS011;8286;51.274;9.542;2023-12-28T00:11:27;1.97;;;1.77;;
16352;SDS011;8286;51.274;9.542;2023-12-28T00:13:54;3.17;;;1.70;;
16352;SDS011;8286;51.274;9.542;2023-12-28T00:16:21;2.63;;;1.90;;
16352;SDS011;8286;51.274;9.542;2023-12-28T00:18:47;4.00;;;2.20;;
16352;SDS011;8286;51.274;9.542;2023-12-28T00:21:14;3.03;;;2.00;;
16352;SDS011;8286;51.274;9.542;2023-12-28T00:23:40;5.50;;;2.00;;
16352;SDS011;8286;51.274;9.542;2023-12-28T00:26:07;2.37;;;1.87;;
16352;SDS011;8286;51.274;9.542;2023-12-28T00:28:34;3.73;;;2.07;;
16352;SDS011;8286;51.274;9.542;2023-12-28T00:31:01;6.17;;;1.80;;
16352;SDS011;8286;51.274;9.542;2023-12-28T00:33:27;2.33;;;2.00;;
16352;SDS011;8286;51.274;9.542;2023-12-28T00:35:54;3.87;;;1.93;;
16352;SDS011;8286;51.274;9.542;2023-12-28T00:38:20;3.13;;;2.23;;
16352;SDS011;8286;51.274;9.542;2023-12-28T00:40:47;2.50;;;1.80;;
16352;SDS011;8286;51.274;9.542;2023-12-28T00:43:13;3.47;;;1.80;;
16352;SDS011;8286;51.274;9.542;2023-12-28T00:45:41;5.60;;;2.13;;
16352;SDS011;8286;51.274;9.542;2023-12-28T00:48:08;4.57;;;2.20;;
16352;SDS011;8286;51.274;9.542;2023-12-28T00:50:34;2.73;;;1.90;;
16352;SDS011;8286;51.274;9.542;2023-12-28T00:53:01;3.67;;;2.27;;
16352;SDS011;8286;51.274;9.542;2023-12-28T00:55:27;3.93;;;2.40;;
16352;SDS011;8286;51.274;9.542;2023-12-28T00:57:54;4.40;;;1.97;;
16352;SDS011;8286;51.274;9.542;2023-12-28T01:00:20;4.67;;;2.23;;
16352;SDS011;8286;51.274;9.542;2023-12-28T01:02:48;2.50;;;2.10;;
16352;SDS011;8286;51.274;9.542;2023-12-28T01:05:15;2.17;;;1.97;;
16352;SDS011;8286;51.274;9.542;2023-12-28T01:07:42;2.30;;;2.07;;
16352;SDS011;8286;51.274;9.542;2023-12-28T01:10:09;3.87;;;2.03;;
16352;SDS011;8286;51.274;9.542;2023-12-28T01:12:35;2.47;;;2.17;;
16352;SDS011;8286;51.274;9.542;2023-12-28T01:15:02;2.90;;;2.50;;
16352;SDS011;8286;51.274;9.542;2023-12-28T01:17:29;2.20;;;1.90;;
16352;SDS011;8286;51.274;9.542;2023-12-28T01:19:56;4.30;;;2.30;;
16352;SDS011;8286;51.274;9.542;2023-12-28T01:22:23;8.53;;;3.23;;
16352;SDS011;8286;51.274;9.542;2023-12-28T01:24:49;2.30;;;1.93;;
16352;SDS011;8286;51.274;9.542;2023-12-28T01:27:16;4.43;;;2.20;;
16352;SDS011;8286;51.274;9.542;2023-12-28T01:29:43;2.50;;;2.23;;
16352;SDS011;8286;51.274;9.542;2023-12-28T01:32:09;2.80;;;2.50;;
16352;SDS011;8286;51.274;9.542;2023-12-28T01:34:36;4.43;;;2.33;;
16352;SDS011;8286;51.274;9.542;2023-12-28T01:37:04;2.73;;;2.43;;
16352;SDS011;8286;51.274;9.542;2023-12-28T01:39:30;4.47;;;2.70;;
16352;SDS011;8286;51.274;9.542;2023-12-28T01:41:57;2.97;;;2.13;;
16352;SDS011;8286;51.274;9.542;2023-12-28T01:44:23;3.43;;;2.27;;
16352;SDS011;8286;51.274;9.542;2023-12-28T01:46:50;3.70;;;2.50;;
16352;SDS011;8286;51.274;9.542;2023-12-28T01:49:16;2.10;;;1.90;;
16352;SDS011;8286;51.274;9.542;2023-12-28T01:51:43;2.13;;;1.90;;
16352;SDS011;8286;51.274;9.542;2023-12-28T01:54:12;2.20;;;2.00;;
16352;SDS011;8286;51.274;9.542;2023-12-28T01:56:39;2.70;;;2.27;;
16352;SDS011;8286;51.274;9.542;2023-12-28T01:59:05;2.50;;;2.30;;
16352;SDS011;8286;51.274;9.542;2023-12-28T02:01:32;2.73;;;2.43;;
16352;SDS011;8286;51.274;9.542;2023-12-28T02:03:58;3.77;;;2.97;;
16352;SDS011;8286;51.274;9.542;2023-12-28T02:06:25;3.23;;;2.70;;
16352;SDS011;8286;51.274;9.542;2023-12-28T02:08:52;7.50;;;2.47;;
16352;SDS011;8286;51.274;9.542;2023-12-28T02:11:20;2.90;;;2.53;;
16352;SDS011;8286;51.274;9.542;2023-12-28T02:13:46;6.20;;;2.30;;
16352;SDS011;8286;51.274;9.542;2023-12-28T02:16:15;4.10;;;2.40;;
16352;SDS011;8286;51.274;9.542;2023-12-28T02:18:43;2.90;;;2.60;;
16352;SDS011;8286;51.274;9.542;2023-12-28T02:21:10;6.97;;;2.37;;
16352;SDS011;8286;51.274;9.542;2023-12-28T02:23:38;4.03;;;2.90;;
16352;SDS011;8286;51.274;9.542;2023-12-28T02:26:06;6.73;;;2.40;;
16352;SDS011;8286;51.274;9.542;2023-12-28T02:28:33;3.50;;;2.80;;
16352;SDS011;8286;51.274;9.542;2023-12-28T02:30:59;2.97;;;2.20;;
16352;SDS011;8286;51.274;9.542;2023-12-28T02:33:29;4.53;;;2.33;;
16352;SDS011;8286;51.274;9.542;2023-12-28T02:36:01;2.37;;;2.17;;
16352;SDS011;8286;51.274;9.542;2023-12-28T02:38:29;2.70;;;2.10;;
16352;SDS011;8286;51.274;9.542;2023-12-28T02:40:57;6.03;;;2.10;;
16352;SDS011;8286;51.274;9.542;2023-12-28T02:43:25;3.67;;;2.43;;
16352;SDS011;8286;51.274;9.542;2023-12-28T02:45:51;2.77;;;2.47;;
16352;SDS011;8286;51.274;9.542;2023-12-28T02:48:18;3.00;;;2.17;;
16352;SDS011;8286;51.274;9.542;2023-12-28T02:50:44;4.10;;;2.33;;
16352;SDS011;8286;51.274;9.542;2023-12-28T02:53:11;2.60;;;2.27;;
16352;SDS011;8286;51.274;9.542;2023-12-28T02:55:38;3.77;;;2.17;;
16352;SDS011;8286;51.274;9.542;2023-12-28T02:58:05;2.57;;;2.37;;
16352;SDS011;8286;51.274;9.542;2023-12-28T03:00:33;5.23;;;2.50;;
16352;SDS011;8286;51.274;9.542;2023-12-28T03:02:59;3.80;;;2.30;;
16352;SDS011;8286;51.274;9.542;2023-12-28T03:05:26;3.93;;;2.43;;
16352;SDS011;8286;51.274;9.542;2023-12-28T03:07:52;2.23;;;2.00;;
16352;SDS011;8286;51.274;9.542;2023-12-28T03:10:20;2.70;;;2.40;;
16352;SDS011;8286;51.274;9.542;2023-12-28T03:12:47;2.73;;;2.23;;
16352;SDS011;8286;51.274;9.542;2023-12-28T03:15:13;2.67;;;2.20;;
16352;SDS011;8286;51.274;9.542;2023-12-28T03:17:41;2.20;;;2.00;;
16352;SDS011;8286;51.274;9.542;2023-12-28T03:20:08;3.10;;;2.23;;
16352;SDS011;8286;51.274;9.542;2023-12-28T03:22:36;2.67;;;2.33;;
16352;SDS011;8286;51.274;9.542;2023-12-28T03:25:03;3.63;;;2.40;;
16352;SDS011;8286;51.274;9.542;2023-12-28T03:27:30;2.50;;;2.13;;
16352;SDS011;8286;51.274;9.542;2023-12-28T03:29:56;4.73;;;2.47;;
16352;SDS011;8286;51.274;9.542;2023-12-28T03:32:23;4.37;;;2.10;;
16352;SDS011;8286;51.274;9.542;2023-12-28T03:34:51;2.83;;;2.50;;
16352;SDS011;8286;51.274;9.542;2023-12-28T03:37:17;5.43;;;2.27;;
16352;SDS011;8286;51.274;9.542;2023-12-28T03:39:44;4.13;;;2.40;;
16352;SDS011;8286;51.274;9.542;2023-12-28T03:42:11;4.87;;;2.57;;
16352;SDS011;8286;51.274;9.542;2023-12-28T03:44:38;5.67;;;3.23;;
16352;SDS011;8286;51.274;9.542;2023-12-28T03:47:05;2.50;;;2.20;;
16352;SDS011;8286;51.274;9.542;2023-12-28T03:49:31;3.10;;;2.03;;
16352;SDS011;8286;51.274;9.542;2023-12-28T03:51:59;2.60;;;2.40;;
16352;SDS011;8286;51.274;9.542;2023-12-28T03:54:26;3.27;;;2.50;;
16352;SDS011;8286;51.274;9.542;2023-12-28T03:56:52;5.73;;;2.30;;
16352;SDS011;8286;51.274;9.542;2023-12-28T03:59:19;3.00;;;2.20;;
16352;SDS011;8286;51.274;9.542;2023-12-28T04:01:46;2.87;;;2.50;;
16352;SDS011;8286;51.274;9.542;2023-12-28T04:04:12;3.93;;;2.67;;
16352;SDS011;8286;51.274;9.542;2023-12-28T04:06:39;3.57;;;2.47;;
16352;SDS011;8286;51.274;9.542;2023-12-28T04:09:08;2.40;;;2.20;;
16352;SDS011;8286;51.274;9.542;2023-12-28T04:11:34;2.23;;;2.07;;
16352;SDS011;8286;51.274;9.542;2023-12-28T04:14:01;4.27;;;2.57;;
16352;SDS011;8286;51.274;9.542;2023-12-28T04:16:27;6.10;;;2.63;;
16352;SDS011;8286;51.274;9.542;2023-12-28T04:18:54;3.50;;;2.40;;
16352;SDS011;8286;51.274;9.542;2023-12-28T04:21:20;2.83;;;2.30;;
16352;SDS011;8286;51.274;9.542;2023-12-28T04:23:47;4.13;;;2.17;;
16352;SDS011;8286;51.274;9.542;2023-12-28T04:26:17;2.53;;;2.33;;
16352;SDS011;8286;51.274;9.542;2023-12-28T04:28:44;3.20;;;1.97;;
16352;SDS011;8286;51.274;9.542;2023-12-28T04:31:10;3.33;;;2.20;;
16352;SDS011;8286;51.274;9.542;2023-12-28T04:33:37;5.07;;;2.40;;
16352;SDS011;8286;51.274;9.542;2023-12-28T04:36:04;6.70;;;2.60;;
16352;SDS011;8286;51.274;9.542;2023-12-28T04:38:31;2.63;;;1.90;;
16352;SDS011;8286;51.274;9.542;2023-12-28T04:40:58;2.57;;;2.37;;
16352;SDS011;8286;51.274;9.542;2023-12-28T04:43:26;2.30;;;2.10;;
16352;SDS011;8286;51.274;9.542;2023-12-28T04:45:53;2.33;;;1.97;;
16352;SDS011;8286;51.274;9.542;2023-12-28T04:48:18;2.87;;;2.20;;
16352;SDS011;8286;51.274;9.542;2023-12-28T04:50:46;3.43;;;2.27;;
16352;SDS011;8286;51.274;9.542;2023-12-28T04:53:13;5.17;;;2.43;;
16352;SDS011;8286;51.274;9.542;2023-12-28T04:55:39;3.43;;;2.77;;
16352;SDS011;8286;51.274;9.542;2023-12-28T04:58:06;4.77;;;2.60;;
16352;SDS011;8286;51.274;9.542;2023-12-28T05:00:34;3.17;;;2.50;;
16352;SDS011;8286;51.274;9.542;2023-12-28T05:03:00;4.20;;;2.47;;
16352;SDS011;8286;51.274;9.542;2023-12-28T05:05:27;2.43;;;2.13;;
16352;SDS011;8286;51.274;9.542;2023-12-28T05:07:53;5.23;;;2.20;;
16352;SDS011;8286;51.274;9.542;2023-12-28T05:10:20;2.97;;;2.67;;
16352;SDS011;8286;51.274;9.542;2023-12-28T05:12:46;4.40;;;2.20;;
16352;SDS011;8286;51.274;9.542;2023-12-28T05:15:13;3.10;;;2.60;;
16352;SDS011;8286;51.274;9.542;2023-12-28T05:17:41;3.50;;;2.60;;
16352;SDS011;8286;51.274;9.542;2023-12-28T05:20:08;2.10;;;1.90;;
16352;SDS011;8286;51.274;9.542;2023-12-28T05:22:35;2.77;;;2.40;;
16352;SDS011;8286;51.274;9.542;2023-12-28T05:25:02;3.00;;;2.07;;
16352;SDS011;8286;51.274;9.542;2023-12-28T05:27:29;4.60;;;2.60;;
16352;SDS011;8286;51.274;9.542;2023-12-28T05:29:56;3.27;;;2.23;;
16352;SDS011;8286;51.274;9.542;2023-12-28T05:32:22;2.47;;;2.17;;
16352;SDS011;8286;51.274;9.542;2023-12-28T05:34:50;3.50;;;2.67;;
16352;SDS011;8286;51.274;9.542;2023-12-28T05:37:16;4.03;;;2.53;;
16352;SDS011;8286;51.274;9.542;2023-12-28T05:39:43;3.77;;;2.80;;
16352;SDS011;8286;51.274;9.542;2023-12-28T05:42:09;3.20;;;2.30;;
16352;SDS011;8286;51.274;9.542;2023-12-28T05:44:36;2.40;;;2.20;;
16352;SDS011;8286;51.274;9.542;2023-12-28T05:47:02;2.43;;;2.23;;
16352;SDS011;8286;51.274;9.542;2023-12-28T05:49:29;3.00;;;2.63;;
16352;SDS011;8286;51.274;9.542;2023-12-28T05:51:58;3.73;;;2.47;;
16352;SDS011;8286;51.274;9.542;2023-12-28T05:54:24;3.77;;;2.60;;
16352;SDS011;8286;51.274;9.542;2023-12-28T05:56:51;4.27;;;2.67;;
16352;SDS011;8286;51.274;9.542;2023-12-28T05:59:17;2.90;;;2.60;;
16352;SDS011;8286;51.274;9.542;2023-12-28T06:01:44;3.00;;;2.73;;
16352;SDS011;8286;51.274;9.542;2023-12-28T06:04:12;2.80;;;2.40;;
16352;SDS011;8286;51.274;9.542;2023-12-28T06:06:38;3.30;;;2.43;;
16352;SDS011;8286;51.274;9.542;2023-12-28T06:09:06;2.60;;;2.40;;
16352;SDS011;8286;51.274;9.542;2023-12-28T06:11:33;2.30;;;2.10;;
16352;SDS011;8286;51.274;9.542;2023-12-28T06:13:59;3.10;;;2.70;;
16352;SDS011;8286;51.274;9.542;2023-12-28T06:16:26;2.83;;;2.43;;
16352;SDS011;8286;51.274;9.542;2023-12-28T06:18:56;4.87;;;2.70;;
16352;SDS011;8286;51.274;9.542;2023-12-28T06:21:22;4.43;;;2.20;;
16352;SDS011;8286;51.274;9.542;2023-12-28T06:23:49;2.43;;;2.23;;
16352;SDS011;8286;51.274;9.542;2023-12-28T06:26:17;3.43;;;2.50;;
16352;SDS011;8286;51.274;9.542;2023-12-28T06:28:43;4.40;;;2.40;;
16352;SDS011;8286;51.274;9.542;2023-12-28T06:31:10;4.37;;;2.67;;
16352;SDS011;8286;51.274;9.542;2023-12-28T06:33:36;2.40;;;2.20;;
16352;SDS011;8286;51.274;9.542;2023-12-28T06:36:07;2.93;;;2.70;;
16352;SDS011;8286;51.274;9.542;2023-12-28T06:38:34;3.97;;;2.50;;
16352;SDS011;8286;51.274;9.542;2023-12-28T06:41:00;3.40;;;2.47;;
16352;SDS011;8286;51.274;9.542;2023-12-28T06:43:28;2.90;;;2.63;;
16352;SDS011;8286;51.274;9.542;2023-12-28T06:45:55;2.70;;;2.50;;
16352;SDS011;8286;51.274;9.542;2023-12-28T06:48:21;3.57;;;2.20;;
16352;SDS011;8286;51.274;9.542;2023-12-28T06:50:49;5.43;;;2.50;;
16352;SDS011;8286;51.274;9.542;2023-12-28T06:53:15;4.07;;;2.70;;
16352;SDS011;8286;51.274;9.542;2023-12-28T06:55:42;4.23;;;2.30;;
16352;SDS011;8286;51.274;9.542;2023-12-28T06:58:09;3.73;;;2.10;;
16352;SDS011;8286;51.274;9.542;2023-12-28T07:00:37;3.40;;;2.60;;
16352;SDS011;8286;51.274;9.542;2023-12-28T07:03:03;3.10;;;2.20;;
16352;SDS011;8286;51.274;9.542;2023-12-28T07:05:30;3.73;;;2.23;;
16352;SDS011;8286;51.274;9.542;2023-12-28T07:07:56;3.50;;;2.60;;
16352;SDS011;8286;51.274;9.542;2023-12-28T07:10:23;2.80;;;2.27;;
16352;SDS011;8286;51.274;9.542;2023-12-28T07:12:49;3.60;;;2.40;;
16352;SDS011;8286;51.274;9.542;2023-12-28T07:15:16;5.37;;;2.47;;
16352;SDS011;8286;51.274;9.542;2023-12-28T07:17:44;2.60;;;2.40;;
16352;SDS011;8286;51.274;9.542;2023-12-28T07:20:11;2.67;;;2.47;;
16352;SDS011;8286;51.274;9.542;2023-12-28T07:22:38;3.20;;;2.40;;
16352;SDS011;8286;51.274;9.542;2023-12-28T07:25:04;3.07;;;2.50;;
16352;SDS011;8286;51.274;9.542;2023-12-28T07:27:31;3.63;;;2.43;;
16352;SDS011;8286;51.274;9.542;2023-12-28T07:29:58;2.53;;;2.07;;
16352;SDS011;8286;51.274;9.542;2023-12-28T07:32:25;2.43;;;2.20;;
16352;SDS011;8286;51.274;9.542;2023-12-28T07:34:53;4.87;;;2.50;;
16352;SDS011;8286;51.274;9.542;2023-12-28T07:37:20;3.90;;;2.20;;
16352;SDS011;8286;51.274;9.542;2023-12-28T07:39:47;3.60;;;2.33;;
16352;SDS011;8286;51.274;9.542;2023-12-28T07:42:14;3.83;;;2.50;;
16352;SDS011;8286;51.274;9.542;2023-12-28T07:44:40;2.53;;;2.10;;
16352;SDS011;8286;51.274;9.542;2023-12-28T07:47:07;6.30;;;2.63;;
16352;SDS011;8286;51.274;9.542;2023-12-28T07:49:34;3.50;;;2.20;;
16352;SDS011;8286;51.274;9.542;2023-12-28T07:52:02;2.50;;;2.17;;
16352;SDS011;8286;51.274;9.542;2023-12-28T07:54:29;2.90;;;2.30;;
16352;SDS011;8286;51.274;9.542;2023-12-28T07:56:55;4.13;;;2.70;;
16352;SDS011;8286;51.274;9.542;2023-12-28T07:59:22;3.87;;;2.50;;
16352;SDS011;8286;51.274;9.542;2023-12-28T08:01:49;2.80;;;2.13;;
16352;SDS011;8286;51.274;9.542;2023-12-28T08:04:15;4.30;;;2.70;;
16352;SDS011;8286;51.274;9.542;2023-12-28T08:06:42;2.27;;;2.13;;
16352;SDS011;8286;51.274;9.542;2023-12-28T08:09:09;2.80;;;2.53;;
16352;SDS011;8286;51.274;9.542;2023-12-28T08:11:36;3.47;;;2.63;;
16352;SDS011;8286;51.274;9.542;2023-12-28T08:14:02;5.37;;;2.63;;
16352;SDS011;8286;51.274;9.542;2023-12-28T08:16:29;4.73;;;2.73;;
16352;SDS011;8286;51.274;9.542;2023-12-28T08:18:56;4.00;;;3.10;;
16352;SDS011;8286;51.274;9.542;2023-12-28T08:21:22;3.17;;;2.67;;
16352;SDS011;8286;51.274;9.542;2023-12-28T08:23:49;2.97;;;2.17;;
16352;SDS011;8286;51.274;9.542;2023-12-28T08:26:16;3.90;;;2.73;;
16352;SDS011;8286;51.274;9.542;2023-12-28T08:28:43;5.00;;;2.73;;
16352;SDS011;8286;51.274;9.542;2023-12-28T08:31:10;3.43;;;2.40;;
16352;SDS011;8286;51.274;9.542;2023-12-28T08:33:37;4.33;;;2.63;;
16352;SDS011;8286;51.274;9.542;2023-12-28T08:36:05;3.47;;;3.13;;
16352;SDS011;8286;51.274;9.542;2023-12-28T08:38:32;6.10;;;2.80;;
16352;SDS011;8286;51.274;9.542;2023-12-28T08:40:59;3.40;;;2.87;;
16352;SDS011;8286;51.274;9.542;2023-12-28T08:43:26;4.37;;;2.40;;
16352;SDS011;8286;51.274;9.542;2023-12-28T08:45:53;4.20;;;2.60;;
16352;SDS011;8286;51.274;9.542;2023-12-28T08:48:20;5.17;;;2.43;;
16352;SDS011;8286;51.274;9.542;2023-12-28T08:50:49;2.83;;;2.50;;
16352;SDS011;8286;51.274;9.542;2023-12-28T08:53:15;2.90;;;2.50;;
16352;SDS011;8286;51.274;9.542;2023-12-28T08:55:42;2.47;;;2.23;;
16352;SDS011;8286;51.274;9.542;2023-12-28T08:58:08;3.03;;;2.60;;
16352;SDS011;8286;51.274;9.542;2023-12-28T09:00:36;3.43;;;2.43;;
16352;SDS011;8286;51.274;9.542;2023-12-28T09:03:02;3.67;;;2.63;;
16352;SDS011;8286;51.274;9.542;2023-12-28T09:05:29;5.23;;;2.97;;
16352;SDS011;8286;51.274;9.542;2023-12-28T09:07:55;3.73;;;2.87;;
16352;SDS011;8286;51.274;9.542;2023-12-28T09:10:22;6.97;;;3.10;;
16352;SDS011;8286;51.274;9.542;2023-12-28T09:12:49;3.83;;;3.20;;
16352;SDS011;8286;51.274;9.542;2023-12-28T09:15:15;3.67;;;2.80;;
16352;SDS011;8286;51.274;9.542;2023-12-28T09:17:43;3.03;;;2.50;;
16352;SDS011;8286;51.274;9.542;2023-12-28T09:20:10;2.50;;;2.30;;
16352;SDS011;8286;51.274;9.542;2023-12-28T09:22:37;5.07;;;3.00;;
16352;SDS011;8286;51.274;9.542;2023-12-28T09:25:04;5.60;;;2.83;;
16352;SDS011;8286;51.274;9.542;2023-12-28T09:27:31;4.77;;;2.57;;
16352;SDS011;8286;51.274;9.542;2023-12-28T09:29:57;4.70;;;2.80;;
16352;SDS011;8286;51.274;9.542;2023-12-28T09:32:24;4.03;;;2.40;;
16352;SDS011;8286;51.274;9.542;2023-12-28T09:34:52;3.93;;;3.03;;
16352;SDS011;8286;51.274;9.542;2023-12-28T09:37:18;3.93;;;2.73;;
16352;SDS011;8286;51.274;9.542;2023-12-28T09:39:45;3.80;;;2.80;;
16352;SDS011;8286;51.274;9.542;2023-12-28T09:42:14;3.60;;;2.57;;
16352;SDS011;8286;51.274;9.542;2023-12-28T09:44:43;4.77;;;2.70;;
16352;SDS011;8286;51.274;9.542;2023-12-28T09:47:09;4.73;;;2.53;;
16352;SDS011;8286;51.274;9.542;2023-12-28T09:49:37;6.13;;;2.70;;
16352;SDS011;8286;51.274;9.542;2023-12-28T09:52:06;6.00;;;2.37;;
16352;SDS011;8286;51.274;9.542;2023-12-28T09:54:34;3.67;;;2.43;;
16352;SDS011;8286;51.274;9.542;2023-12-28T09:57:01;2.50;;;2.10;;
16352;SDS011;8286;51.274;9.542;2023-12-28T09:59:29;5.33;;;2.60;;
16352;SDS011;8286;51.274;9.542;2023-12-28T10:01:55;5.77;;;2.60;;
16352;SDS011;8286;51.274;9.542;2023-12-28T10:04:22;4.90;;;2.33;;
16352;SDS011;8286;51.274;9.542;2023-12-28T10:06:49;5.40;;;2.70;;
16352;SDS011;8286;51.274;9.542;2023-12-28T10:09:17;3.47;;;2.67;;
16352;SDS011;8286;51.274;9.542;2023-12-28T10:11:43;4.17;;;2.50;;
16352;SDS011;8286;51.274;9.542;2023-12-28T10:14:10;2.30;;;2.10;;
16352;SDS011;8286;51.274;9.542;2023-12-28T10:16:39;4.20;;;2.10;;
16352;SDS011;8286;51.274;9.542;2023-12-28T10:19:06;2.97;;;2.40;;
16352;SDS011;8286;51.274;9.542;2023-12-28T10:21:33;3.47;;;2.20;;
16352;SDS011;8286;51.274;9.542;2023-12-28T10:23:59;3.33;;;2.20;;
16352;SDS011;8286;51.274;9.542;2023-12-28T10:26:27;3.73;;;2.57;;
16352;SDS011;8286;51.274;9.542;2023-12-28T10:28:56;2.53;;;2.33;;
16352;SDS011;8286;51.274;9.542;2023-12-28T10:31:23;2.53;;;2.33;;
16352;SDS011;8286;51.274;9.542;2023-12-28T10:33:50;4.37;;;2.30;;
16352;SDS011;8286;51.274;9.542;2023-12-28T10:36:17;2.60;;;2.17;;
16352;SDS011;8286;51.274;9.542;2023-12-28T10:38:45;5.53;;;2.50;;
16352;SDS011;8286;51.274;9.542;2023-12-28T10:41:11;4.63;;;2.47;;
16352;SDS011;8286;51.274;9.542;2023-12-28T10:43:42;2.20;;;2.00;;
16352;SDS011;8286;51.274;9.542;2023-12-28T10:46:12;5.10;;;2.30;;
16352;SDS011;8286;51.274;9.542;2023-12-28T10:48:44;3.33;;;2.10;;
16352;SDS011;8286;51.274;9.542;2023-12-28T10:51:12;3.90;;;2.20;;
16352;SDS011;8286;51.274;9.542;2023-12-28T10:53:45;2.50;;;2.20;;
16352;SDS011;8286;51.274;9.542;2023-12-28T10:56:20;2.27;;;2.07;;
16352;SDS011;8286;51.274;9.542;2023-12-28T10:58:49;2.47;;;2.27;;
16352;SDS011;8286;51.274;9.542;2023-12-28T11:01:21;2.60;;;1.93;;
16352;SDS011;8286;51.274;9.542;2023-12-28T11:03:51;2.53;;;1.87;;
16352;SDS011;8286;51.274;9.542;2023-12-28T11:06:19;2.20;;;2.00;;
16352;SDS011;8286;51.274;9.542;2023-12-28T11:08:45;4.17;;;1.70;;
16352;SDS011;8286;51.274;9.542;2023-12-28T11:11:16;3.37;;;2.17;;
16352;SDS011;8286;51.274;9.542;2023-12-28T11:13:44;5.50;;;1.97;;
16352;SDS011;8286;51.274;9.542;2023-12-28T11:16:12;2.50;;;1.80;;
16352;SDS011;8286;51.274;9.542;2023-12-28T11:18:40;3.70;;;2.17;;
16352;SDS011;8286;51.274;9.542;2023-12-28T11:21:07;2.00;;;1.83;;
16352;SDS011;8286;51.274;9.542;2023-12-28T11:23:34;2.83;;;1.43;;
16352;SDS011;8286;51.274;9.542;2023-12-28T11:26:01;1.70;;;1.60;;
16352;SDS011;8286;51.274;9.542;2023-12-28T11:28:28;3.53;;;1.93;;
16352;SDS011;8286;51.274;9.542;2023-12-28T11:30:55;3.03;;;2.00;;
16352;SDS011;8286;51.274;9.542;2023-12-28T11:33:23;3.77;;;2.00;;
16352;SDS011;8286;51.274;9.542;2023-12-28T11:35:56;3.33;;;1.80;;
16352;SDS011;8286;51.274;9.542;2023-12-28T11:38:23;2.40;;;1.70;;
16352;SDS011;8286;51.274;9.542;2023-12-28T11:40:51;4.13;;;1.60;;
16352;SDS011;8286;51.274;9.542;2023-12-28T11:43:20;4.23;;;1.63;;
16352;SDS011;8286;51.274;9.542;2023-12-28T11:45:47;5.17;;;1.50;;
16352;SDS011;8286;51.274;9.542;2023-12-28T11:48:21;2.97;;;1.60;;
16352;SDS011;8286;51.274;9.542;2023-12-28T11:50:51;2.97;;;1.40;;
16352;SDS011;8286;51.274;9.542;2023-12-28T11:53:19;2.90;;;1.57;;
16352;SDS011;8286;51.274;9.542;2023-12-28T11:55:46;3.97;;;1.70;;
16352;SDS011;8286;51.274;9.542;2023-12-28T11:58:12;2.83;;;1.50;;
16352;SDS011;8286;51.274;9.542;2023-12-28T12:00:39;2.03;;;1.90;;
16352;SDS011;8286;51.274;9.542;2023-12-28T12:03:06;2.30;;;1.73;;
16352;SDS011;8286;51.274;9.542;2023-12-28T12:05:37;4.23;;;1.63;;
16352;SDS011;8286;51.274;9.542;2023-12-28T12:08:04;1.50;;;1.40;;
16352;SDS011;8286;51.274;9.542;2023-12-28T12:10:33;14.60;;;2.17;;
16352;SDS011;8286;51.274;9.542;2023-12-28T12:13:00;2.17;;;1.70;;
16352;SDS011;8286;51.274;9.542;2023-12-28T12:15:27;2.17;;;1.70;;
16352;SDS011;8286;51.274;9.542;2023-12-28T12:17:55;2.17;;;1.63;;
16352;SDS011;8286;51.274;9.542;2023-12-28T12:20:22;2.30;;;1.67;;
16352;SDS011;8286;51.274;9.542;2023-12-28T12:22:50;4.47;;;2.10;;
16352;SDS011;8286;51.274;9.542;2023-12-28T12:25:17;2.23;;;1.30;;
16352;SDS011;8286;51.274;9.542;2023-12-28T12:27:44;2.60;;;1.80;;
16352;SDS011;8286;51.274;9.542;2023-12-28T12:30:11;9.47;;;2.20;;
16352;SDS011;8286;51.274;9.542;2023-12-28T12:32:38;5.67;;;2.17;;
16352;SDS011;8286;51.274;9.542;2023-12-28T12:35:08;7.63;;;2.07;;
16352;SDS011;8286;51.274;9.542;2023-12-28T12:37:35;3.20;;;1.73;;
16352;SDS011;8286;51.274;9.542;2023-12-28T12:40:03;18.53;;;4.63;;
16352;SDS011;8286;51.274;9.542;2023-12-28T12:42:31;13.83;;;3.20;;
16352;SDS011;8286;51.274;9.542;2023-12-28T12:44:57;12.63;;;3.53;;
16352;SDS011;8286;51.274;9.542;2023-12-28T12:47:24;2.00;;;1.50;;
16352;SDS011;8286;51.274;9.542;2023-12-28T12:49:51;5.73;;;1.90;;
16352;SDS011;8286;51.274;9.542;2023-12-28T12:52:18;1.83;;;1.50;;
16352;SDS011;8286;51.274;9.542;2023-12-28T12:54:52;1.73;;;1.60;;
16352;SDS011;8286;51.274;9.542;2023-12-28T12:57:21;2.83;;;1.80;;
16352;SDS011;8286;51.274;9.542;2023-12-28T12:59:47;2.13;;;1.50;;
16352;SDS011;8286;51.274;9.542;2023-12-28T13:02:15;2.10;;;1.50;;
16352;SDS011;8286;51.274;9.542;2023-12-28T13:04:42;3.87;;;1.47;;
16352;SDS011;8286;51.274;9.542;2023-12-28T13:07:09;2.70;;;1.60;;
16352;SDS011;8286;51.274;9.542;2023-12-28T13:09:35;1.67;;;1.50;;
16352;SDS011;8286;51.274;9.542;2023-12-28T13:12:02;1.33;;;1.30;;
16352;SDS011;8286;51.274;9.542;2023-12-28T13:14:30;1.47;;;1.20;;
16352;SDS011;8286;51.274;9.542;2023-12-28T13:16:57;4.17;;;1.47;;
16352;SDS011;8286;51.274;9.542;2023-12-28T13:19:23;1.83;;;1.50;;
16352;SDS011;8286;51.274;9.542;2023-12-28T13:21:50;6.27;;;1.80;;
16352;SDS011;8286;51.274;9.542;2023-12-28T13:24:16;2.57;;;1.93;;
16352;SDS011;8286;51.274;9.542;2023-12-28T13:26:43;2.50;;;1.70;;
16352;SDS011;8286;51.274;9.542;2023-12-28T13:29:09;1.63;;;1.40;;
16352;SDS011;8286;51.274;9.542;2023-12-28T13:31:37;4.50;;;1.67;;
16352;SDS011;8286;51.274;9.542;2023-12-28T13:34:04;3.70;;;1.40;;
16352;SDS011;8286;51.274;9.542;2023-12-28T13:36:31;3.37;;;1.80;;
16352;SDS011;8286;51.274;9.542;2023-12-28T13:38:59;2.70;;;1.63;;
16352;SDS011;8286;51.274;9.542;2023-12-28T13:41:25;1.47;;;1.23;;
16352;SDS011;8286;51.274;9.542;2023-12-28T13:43:53;2.27;;;1.40;;
16352;SDS011;8286;51.274;9.542;2023-12-28T13:46:25;6.57;;;1.63;;
16352;SDS011;8286;51.274;9.542;2023-12-28T13:48:53;3.63;;;1.50;;
16352;SDS011;8286;51.274;9.542;2023-12-28T13:51:20;1.53;;;1.10;;
16352;SDS011;8286;51.274;9.542;2023-12-28T13:53:46;2.53;;;1.30;;
16352;SDS011;8286;51.274;9.542;2023-12-28T13:56:13;1.37;;;1.10;;
16352;SDS011;8286;51.274;9.542;2023-12-28T13:58:39;1.47;;;1.37;;
16352;SDS011;8286;51.274;9.542;2023-12-28T14:01:06;2.30;;;1.00;;
16352;SDS011;8286;51.274;9.542;2023-12-28T14:03:32;1.60;;;1.50;;
16352;SDS011;8286;51.274;9.542;2023-12-28T14:06:00;4.53;;;1.50;;
16352;SDS011;8286;51.274;9.542;2023-12-28T14:08:27;1.87;;;1.33;;
16352;SDS011;8286;51.274;9.542;2023-12-28T14:10:53;2.93;;;1.83;;
16352;SDS011;8286;51.274;9.542;2023-12-28T14:13:20;1.30;;;1.20;;
16352;SDS011;8286;51.274;9.542;2023-12-28T14:15:46;2.10;;;1.20;;
16352;SDS011;8286;51.274;9.542;2023-12-28T14:18:13;2.57;;;1.40;;
16352;SDS011;8286;51.274;9.542;2023-12-28T14:20:40;2.57;;;1.67;;
16352;SDS011;8286;51.274;9.542;2023-12-28T14:23:08;1.53;;;1.40;;
16352;SDS011;8286;51.274;9.542;2023-12-28T14:25:35;5.03;;;1.40;;
16352;SDS011;8286;51.274;9.542;2023-12-28T14:28:02;4.50;;;1.60;;
16352;SDS011;8286;51.274;9.542;2023-12-28T14:30:30;1.70;;;1.10;;
16352;SDS011;8286;51.274;9.542;2023-12-28T14:32:57;1.93;;;1.30;;
16352;SDS011;8286;51.274;9.542;2023-12-28T14:35:24;1.80;;;1.57;;
16352;SDS011;8286;51.274;9.542;2023-12-28T14:37:51;2.53;;;1.67;;
16352;SDS011;8286;51.274;9.542;2023-12-28T14:40:19;1.90;;;1.30;;
16352;SDS011;8286;51.274;9.542;2023-12-28T14:42:45;4.13;;;1.37;;
16352;SDS011;8286;51.274;9.542;2023-12-28T14:45:12;2.67;;;1.60;;
16352;SDS011;8286;51.274;9.542;2023-12-28T14:47:39;3.23;;;1.47;;
16352;SDS011;8286;51.274;9.542;2023-12-28T14:50:06;1.63;;;1.20;;
16352;SDS011;8286;51.274;9.542;2023-12-28T14:52:32;2.70;;;1.23;;
16352;SDS011;8286;51.274;9.542;2023-12-28T14:55:00;4.60;;;1.47;;
16352;SDS011;8286;51.274;9.542;2023-12-28T14:57:27;4.87;;;1.37;;
16352;SDS011;8286;51.274;9.542;2023-12-28T14:59:54;1.33;;;1.23;;